Berino, New Mexico
Current Conditions -  °F | °C
As of 11:58 AM on Thursday 23 Oct 2014 (Local Time) from KBIF Reporting Station
Clear Clear  
Wind Chill: 70°   Ceiling: Unl
Heat Index: 70°   Visibility: 10mi
Dew Point: 55°   Wind: 3mph
Humidity: 58%   Direction: NA
Pressure: 30.22"   Gusts: NA
Location:  32.07°N, 106.62°W
Report Text: KBIF 231758Z VRB03KT 10SM CLR 21/13 A3022 RMK AO2A SLP184 T02130128 10213 20108 50000
Loading
Personal Weather Stations






























Interactive Weather Map
Tropical Storm Tracking
New forecast layout! Learn more

10-Day Weather Forecast

Advertisements
Track Severe Weather on mobile